Overview Statistics Trail Chart Weather Telemetry Raw packets
 

This is the latest recevied weather packets stored in our database for station/object N1JOV-7. If no packets are shown the sender has not sent any weather packets the latest 10 day(s).

<< 16 17 18 19 20 21 22 >>
Time Temp. Humidity Pressure Rain* Wind** Luminosity Snow
1788373262 22.22° C 64% 1023 hPa 0 mm - - -
1788372661 23.33° C 62% 1023 hPa 0 mm - - -
1788372061 23.33° C 62% 1023.1 hPa 0 mm - - -
1788371461 23.33° C 62% 1022.8 hPa 0 mm - - -
1788370861 22.78° C 63% 1023 hPa 0 mm - - -
1788370261 22.78° C 63% 1023.1 hPa 0 mm - - -
1788369661 22.78° C 63% 1022.9 hPa 0 mm - - -
1788369061 22.78° C 62% 1022.9 hPa 0 mm - - -
1788368462 23.33° C 62% 1022.7 hPa 0 mm - - -
1788367862 23.89° C 59% 1023.1 hPa 0 mm - - -
1788367262 23.89° C 59% 1023.4 hPa 0 mm - - -
1788366662 23.33° C 58% 1023.3 hPa 0 mm - - -
1788366080 23.89° C 57% 1023.1 hPa 0 mm - - -
1788365461 23.89° C 58% 1023.5 hPa 0 mm - - -
1788364861 23.89° C 58% 1023.3 hPa 0 mm - - -
1788364261 24.44° C 56% 1023.4 hPa 0 mm - - -
1788363661 24.44° C 59% 1023.4 hPa 0 mm - - -
1788363062 23.89° C 60% 1023.3 hPa 0 mm - - -
1788362462 22.78° C 61% 1023.5 hPa 0 mm - - -
1788361862 23.33° C 62% 1023.3 hPa 0 mm - - -
1788361262 23.33° C 62% 1023.5 hPa 0 mm - - -
1788360661 22.22° C 65% 1023.6 hPa 0 mm - - -
1788360061 22.22° C 64% 1023.6 hPa 0 mm - - -
1788359461 22.22° C 65% 1023.5 hPa 0 mm - - -
1788358861 22.22° C 67% 1023.5 hPa 0 mm - - -

* Rain latest hour (hover to see other rain measurements)
** Current wind speed in m/s (hover to see current wind gust speed)